createdAt,value
2023-02-09T00:00:02.777Z,23.00
2023-02-09T00:02:40.076Z,24.23
2023-02-09T00:05:07.580Z,23.23
2023-02-09T00:07:33.952Z,22.90
2023-02-09T00:10:00.395Z,22.33
2023-02-09T00:12:45.428Z,24.63
2023-02-09T00:15:12.110Z,22.13
2023-02-09T00:17:38.612Z,22.67
2023-02-09T00:20:07.212Z,22.93
2023-02-09T00:22:34.299Z,23.80
2023-02-09T00:25:00.738Z,24.43
2023-02-09T00:27:27.933Z,23.67
2023-02-09T00:29:54.367Z,24.63
2023-02-09T00:32:20.780Z,23.90
2023-02-09T00:34:47.391Z,23.13
2023-02-09T00:37:13.764Z,24.73
2023-02-09T00:39:40.399Z,24.23
2023-02-09T00:42:06.863Z,24.63
2023-02-09T00:44:39.397Z,24.00
2023-02-09T00:47:07.373Z,24.10
2023-02-09T00:49:34.390Z,22.67
2023-02-09T00:52:00.791Z,22.90
2023-02-09T00:54:28.025Z,22.97
2023-02-09T00:56:54.445Z,23.20
2023-02-09T00:59:20.873Z,22.53
2023-02-09T01:01:47.352Z,23.17
2023-02-09T01:04:14.418Z,22.53
2023-02-09T01:06:40.911Z,22.17
2023-02-09T01:09:07.569Z,21.60
2023-02-09T01:11:33.975Z,21.00
2023-02-09T01:14:03.205Z,21.63
2023-02-09T01:16:31.692Z,21.77
2023-02-09T01:19:02.425Z,20.70
2023-02-09T01:21:29.508Z,20.93
2023-02-09T01:23:56.383Z,20.10
2023-02-09T01:26:23.018Z,19.03
2023-02-09T01:28:53.694Z,19.27
2023-02-09T01:31:32.628Z,18.33
2023-02-09T01:34:01.955Z,18.23
2023-02-09T01:36:29.833Z,20.07
2023-02-09T01:38:58.451Z,20.93
2023-02-09T01:41:25.428Z,19.27
2023-02-09T01:44:01.353Z,20.23
2023-02-09T01:46:30.537Z,17.00
2023-02-09T01:49:05.112Z,20.17
2023-02-09T01:51:36.632Z,19.20
2023-02-09T01:54:12.809Z,16.90
2023-02-09T01:56:42.761Z,16.27
2023-02-09T01:59:10.438Z,16.40
2023-02-09T02:01:38.061Z,16.60
2023-02-09T02:04:05.500Z,16.67
2023-02-09T02:06:32.401Z,15.97
2023-02-09T02:09:04.590Z,13.67
2023-02-09T02:11:32.909Z,13.87
2023-02-09T02:13:59.382Z,12.33
2023-02-09T02:16:33.802Z,12.70
2023-02-09T02:19:32.437Z,13.80
2023-02-09T02:22:14.080Z,13.30
2023-02-09T02:25:11.169Z,12.93
2023-02-09T02:27:48.791Z,12.57
2023-02-09T02:30:28.907Z,12.63
2023-02-09T02:33:03.353Z,11.77
2023-02-09T02:35:42.958Z,11.70
2023-02-09T02:38:37.513Z,12.33
2023-02-09T02:41:17.307Z,11.23
2023-02-09T02:43:49.676Z,12.27
2023-02-09T02:46:27.713Z,11.63
2023-02-09T02:49:01.032Z,10.63
2023-02-09T02:51:36.186Z,11.73
2023-02-09T02:54:08.323Z,11.67
2023-02-09T02:56:42.820Z,11.23
2023-02-09T02:59:17.554Z,11.07
2023-02-09T03:01:52.453Z,11.47
2023-02-09T03:04:20.522Z,10.33
2023-02-09T03:06:46.909Z,11.67
2023-02-09T03:09:13.511Z,11.40
2023-02-09T03:11:44.159Z,11.07
2023-02-09T03:14:25.676Z,10.67
2023-02-09T03:17:09.008Z,11.77
2023-02-09T03:20:05.827Z,11.73
2023-02-09T03:22:38.614Z,10.47
2023-02-09T03:25:12.295Z,11.67
2023-02-09T03:27:48.797Z,10.40
2023-02-09T03:30:17.272Z,10.73
2023-02-09T03:32:46.975Z,11.47
2023-02-09T03:35:17.261Z,11.87
2023-02-09T03:37:43.855Z,11.30
2023-02-09T03:40:10.941Z,11.80
2023-02-09T03:42:37.629Z,10.10
2023-02-09T03:45:04.368Z,10.77
2023-02-09T03:47:30.823Z,11.03
2023-02-09T03:49:58.289Z,10.70
2023-02-09T03:52:24.760Z,11.20
2023-02-09T03:54:51.207Z,11.30
2023-02-09T03:57:17.648Z,10.83
2023-02-09T03:59:44.059Z,11.80
2023-02-09T04:02:10.923Z,11.10
2023-02-09T04:04:37.664Z,10.80
2023-02-09T04:07:04.657Z,11.83
2023-02-09T04:09:31.222Z,11.37
2023-02-09T04:11:57.681Z,11.20
2023-02-09T04:14:24.400Z,10.97
2023-02-09T04:16:50.871Z,11.40
2023-02-09T04:19:17.373Z,13.50
2023-02-09T04:21:43.948Z,12.63
2023-02-09T04:24:10.703Z,14.10
2023-02-09T04:26:37.514Z,14.10
2023-02-09T04:29:04.651Z,13.50
2023-02-09T04:31:32.041Z,16.47
2023-02-09T04:33:58.486Z,12.93
2023-02-09T04:36:24.891Z,12.20
2023-02-09T04:38:51.372Z,11.17
2023-02-09T04:41:17.930Z,11.17
2023-02-09T04:43:46.240Z,11.60
2023-02-09T04:46:17.925Z,11.10
2023-02-09T04:48:45.509Z,11.00
2023-02-09T04:51:12.731Z,11.70
2023-02-09T04:53:39.209Z,11.03
2023-02-09T04:56:06.266Z,10.77
2023-02-09T04:58:51.820Z,11.53
2023-02-09T05:01:24.380Z,11.13
2023-02-09T05:03:51.451Z,11.67
2023-02-09T05:06:18.549Z,11.97
2023-02-09T05:08:45.505Z,11.60
2023-02-09T05:11:12.655Z,10.70
2023-02-09T05:13:39.114Z,11.37
2023-02-09T05:16:07.645Z,11.00
2023-02-09T05:18:35.662Z,10.47
2023-02-09T05:21:03.297Z,11.93
2023-02-09T05:23:30.136Z,10.90
2023-02-09T05:25:56.531Z,11.90
2023-02-09T05:28:24.518Z,10.80
2023-02-09T05:30:54.364Z,11.67
2023-02-09T05:33:22.665Z,11.50
2023-02-09T05:35:50.775Z,14.87
2023-02-09T05:38:17.401Z,17.00
2023-02-09T05:40:45.267Z,14.63
2023-02-09T05:43:12.019Z,11.33
2023-02-09T05:45:38.841Z,11.00
2023-02-09T05:48:05.476Z,10.53
2023-02-09T05:50:32.071Z,10.97
2023-02-09T05:52:59.929Z,10.60
2023-02-09T05:55:26.368Z,10.67
2023-02-09T05:57:52.819Z,11.23
2023-02-09T06:00:19.646Z,12.10
2023-02-09T06:02:46.148Z,10.10
2023-02-09T06:05:13.239Z,10.10
2023-02-09T06:07:39.631Z,10.63
2023-02-09T06:10:08.806Z,10.47
2023-02-09T06:12:35.212Z,11.03
2023-02-09T06:15:02.573Z,11.20
2023-02-09T06:17:28.973Z,10.93
2023-02-09T06:19:55.376Z,9.90
2023-02-09T06:22:21.788Z,10.30
2023-02-09T06:24:48.218Z,11.27
2023-02-09T06:27:14.602Z,10.47
2023-02-09T06:29:41.070Z,11.53
2023-02-09T06:32:07.823Z,10.53
2023-02-09T06:34:34.428Z,10.13
2023-02-09T06:37:00.855Z,10.23
2023-02-09T06:39:27.313Z,10.63
2023-02-09T06:41:53.792Z,10.77
2023-02-09T06:44:20.599Z,10.37
2023-02-09T06:46:47.365Z,11.23
2023-02-09T06:49:13.810Z,10.17
2023-02-09T06:51:40.469Z,10.07
2023-02-09T06:54:07.507Z,10.63
2023-02-09T06:56:34.140Z,10.50
2023-02-09T06:59:00.563Z,11.93
2023-02-09T07:01:28.030Z,10.13
2023-02-09T07:03:54.506Z,10.30
2023-02-09T07:06:21.348Z,10.90
2023-02-09T07:08:49.599Z,11.10
2023-02-09T07:11:17.893Z,10.90
2023-02-09T07:13:45.785Z,10.63
2023-02-09T07:16:12.739Z,11.17
2023-02-09T07:18:39.712Z,11.37
2023-02-09T07:21:09.847Z,9.90
2023-02-09T07:23:36.739Z,10.97
2023-02-09T07:26:05.434Z,10.80
2023-02-09T07:28:33.212Z,10.43
2023-02-09T07:31:06.380Z,13.07
2023-02-09T07:33:33.804Z,13.17
2023-02-09T07:36:02.533Z,14.27
2023-02-09T07:38:29.289Z,13.40
2023-02-09T07:40:58.948Z,11.13
2023-02-09T07:43:25.582Z,11.07
2023-02-09T07:45:52.137Z,10.60
2023-02-09T07:48:18.548Z,11.57
2023-02-09T07:50:49.774Z,11.03
2023-02-09T07:53:16.927Z,11.83
2023-02-09T07:55:43.805Z,10.43
2023-02-09T07:58:10.604Z,10.33
2023-02-09T08:00:37.084Z,10.70
2023-02-09T08:03:04.397Z,11.47
2023-02-09T08:05:36.212Z,10.67
2023-02-09T08:08:02.752Z,10.87
2023-02-09T08:10:29.276Z,10.93
2023-02-09T08:13:02.034Z,11.47
2023-02-09T08:15:49.393Z,10.27
2023-02-09T08:18:19.769Z,11.17
2023-02-09T08:20:46.761Z,10.20
2023-02-09T08:23:22.664Z,11.47
2023-02-09T08:25:51.471Z,10.70
2023-02-09T08:28:19.627Z,10.17
2023-02-09T08:30:47.620Z,10.10
2023-02-09T08:33:14.359Z,10.93
2023-02-09T08:35:41.218Z,10.37
2023-02-09T08:38:07.882Z,11.90
2023-02-09T08:40:40.273Z,10.90
2023-02-09T08:43:07.789Z,10.17
2023-02-09T08:45:38.865Z,11.23
2023-02-09T08:48:11.522Z,11.00
2023-02-09T08:50:39.462Z,11.03
2023-02-09T08:53:07.012Z,10.90
2023-02-09T08:55:34.252Z,11.10
2023-02-09T08:58:00.712Z,11.10
2023-02-09T09:00:29.912Z,10.30
2023-02-09T09:02:57.014Z,10.93
2023-02-09T09:05:23.452Z,9.90
2023-02-09T09:07:49.847Z,11.10
2023-02-09T09:10:16.753Z,11.70
2023-02-09T09:12:43.637Z,11.37
2023-02-09T09:15:10.372Z,10.60
2023-02-09T09:17:36.927Z,10.67
2023-02-09T09:20:03.701Z,10.50
2023-02-09T09:22:30.084Z,10.73
2023-02-09T09:24:56.589Z,10.60
2023-02-09T09:27:24.448Z,10.50
2023-02-09T09:29:51.939Z,12.90
2023-02-09T09:32:24.455Z,11.40
2023-02-09T09:34:56.144Z,13.37
2023-02-09T09:37:23.372Z,11.57
2023-02-09T09:39:50.219Z,13.27
2023-02-09T09:42:43.116Z,12.67
2023-02-09T09:45:15.867Z,11.37
2023-02-09T09:47:44.023Z,13.00
2023-02-09T09:50:21.394Z,13.10
2023-02-09T09:52:55.329Z,12.40
2023-02-09T09:55:28.116Z,13.50
2023-02-09T09:57:56.475Z,14.80
2023-02-09T10:00:27.661Z,10.97
2023-02-09T10:02:54.138Z,10.33
2023-02-09T10:05:28.127Z,11.17
2023-02-09T10:08:05.340Z,10.10
2023-02-09T10:10:43.518Z,10.67
2023-02-09T10:13:21.007Z,9.50
2023-02-09T10:15:49.807Z,10.07
2023-02-09T10:18:17.295Z,10.10
2023-02-09T10:21:01.352Z,9.93
2023-02-09T10:24:00.079Z,9.37
2023-02-09T10:26:32.257Z,11.47
2023-02-09T10:29:07.831Z,10.43
2023-02-09T10:31:40.193Z,9.77
2023-02-09T10:34:20.218Z,8.77
2023-02-09T10:37:02.904Z,9.53
2023-02-09T10:39:35.346Z,9.43
2023-02-09T10:42:18.005Z,9.13
2023-02-09T10:44:49.601Z,9.07
2023-02-09T10:47:18.826Z,9.70
2023-02-09T10:49:55.379Z,9.93
2023-02-09T10:52:26.195Z,9.97
2023-02-09T10:54:59.808Z,9.53
2023-02-09T10:57:34.033Z,10.13
2023-02-09T11:00:21.797Z,10.20
2023-02-09T11:02:48.140Z,9.87
2023-02-09T11:05:20.644Z,10.20
2023-02-09T11:08:27.722Z,9.90
2023-02-09T11:11:28.061Z,9.87
2023-02-09T11:13:54.660Z,10.17
2023-02-09T11:16:37.954Z,10.20
2023-02-09T11:19:22.534Z,9.47
2023-02-09T11:22:07.730Z,9.83
2023-02-09T11:24:46.310Z,9.30
2023-02-09T11:27:23.826Z,10.47
2023-02-09T11:29:58.268Z,9.77
2023-02-09T11:32:37.082Z,10.00
2023-02-09T11:35:09.469Z,10.47
2023-02-09T11:37:49.139Z,10.17
2023-02-09T11:40:15.500Z,10.10
2023-02-09T11:43:05.834Z,10.00
2023-02-09T11:45:55.155Z,10.33
2023-02-09T11:48:26.247Z,9.97
2023-02-09T11:50:57.612Z,9.57
2023-02-09T11:53:48.654Z,10.30
2023-02-09T11:56:21.280Z,9.13
2023-02-09T11:58:56.938Z,9.90
2023-02-09T12:01:32.481Z,10.17
2023-02-09T12:04:16.803Z,10.27
2023-02-09T12:06:49.640Z,9.30
2023-02-09T12:09:31.467Z,9.57
2023-02-09T12:12:38.402Z,9.53
2023-02-09T12:15:16.637Z,9.67
2023-02-09T12:17:51.195Z,9.27
2023-02-09T12:20:30.868Z,8.63
2023-02-09T12:23:15.870Z,9.73
2023-02-09T12:25:51.507Z,8.77
2023-02-09T12:28:24.365Z,9.70
2023-02-09T12:30:51.092Z,9.27
2023-02-09T12:33:23.333Z,9.87
2023-02-09T12:36:08.081Z,9.67
2023-02-09T12:39:04.586Z,9.73
2023-02-09T12:41:51.242Z,9.37
2023-02-09T12:44:18.392Z,9.07
2023-02-09T12:46:44.954Z,9.70
2023-02-09T12:49:11.617Z,8.90
2023-02-09T12:51:50.297Z,9.90
2023-02-09T12:54:48.322Z,9.13
2023-02-09T12:57:14.685Z,9.63
2023-02-09T13:00:04.652Z,8.57
2023-02-09T13:02:37.283Z,8.47
2023-02-09T13:05:15.192Z,9.10
2023-02-09T13:08:05.953Z,9.73
2023-02-09T13:10:51.663Z,8.33
2023-02-09T13:13:34.016Z,9.47
2023-02-09T13:16:00.344Z,8.67
2023-02-09T13:19:00.623Z,8.87
2023-02-09T13:21:42.611Z,8.97
2023-02-09T13:24:16.924Z,8.43
2023-02-09T13:26:53.667Z,9.10
2023-02-09T13:29:22.892Z,8.80
2023-02-09T13:32:14.809Z,9.33
2023-02-09T13:34:53.260Z,10.03
2023-02-09T13:37:25.506Z,11.00
2023-02-09T13:39:57.895Z,10.80
2023-02-09T13:42:26.749Z,11.63
2023-02-09T13:44:56.076Z,9.70
2023-02-09T13:47:23.912Z,10.17
2023-02-09T13:50:03.598Z,10.90
2023-02-09T13:52:38.814Z,12.90
2023-02-09T13:55:13.470Z,12.27
2023-02-09T13:57:43.369Z,10.40
2023-02-09T14:00:25.846Z,10.30
2023-02-09T14:03:02.267Z,11.17
2023-02-09T14:06:24.198Z,10.53
2023-02-09T14:08:52.129Z,10.00
2023-02-09T14:11:41.497Z,10.00
2023-02-09T14:14:14.952Z,9.43
2023-02-09T14:16:52.591Z,10.07
2023-02-09T14:19:31.254Z,9.67
2023-02-09T14:21:57.729Z,10.37
2023-02-09T14:24:25.978Z,9.70
2023-02-09T14:27:16.406Z,9.47
2023-02-09T14:29:47.099Z,9.03
2023-02-09T14:32:33.311Z,9.27
2023-02-09T14:35:20.046Z,9.50
2023-02-09T14:37:47.952Z,9.23
2023-02-09T14:40:23.757Z,9.00
2023-02-09T14:43:09.320Z,9.50
2023-02-09T14:45:48.858Z,9.50
2023-02-09T14:48:19.441Z,9.50
2023-02-09T14:50:47.835Z,11.37
2023-02-09T14:53:16.122Z,10.70
2023-02-09T14:55:44.554Z,9.97
2023-02-09T14:58:24.639Z,9.77
2023-02-09T15:00:52.509Z,9.13
2023-02-09T15:03:19.504Z,10.50
2023-02-09T15:05:48.520Z,10.93
2023-02-09T15:08:19.943Z,13.27
2023-02-09T15:10:53.358Z,10.87
2023-02-09T15:13:21.240Z,10.53
2023-02-09T15:15:47.986Z,10.30
2023-02-09T15:18:19.957Z,10.17
2023-02-09T15:20:46.900Z,9.90
2023-02-09T15:23:13.673Z,10.03
2023-02-09T15:25:41.260Z,10.73
2023-02-09T15:28:34.296Z,11.03
2023-02-09T15:31:00.803Z,10.97
2023-02-09T15:33:28.615Z,11.53
2023-02-09T15:35:58.947Z,12.13
2023-02-09T15:38:27.814Z,10.80
2023-02-09T15:41:12.746Z,9.90
2023-02-09T15:43:57.902Z,10.57
2023-02-09T15:46:42.805Z,9.87
2023-02-09T15:49:09.406Z,10.13
2023-02-09T15:51:38.566Z,10.43
2023-02-09T15:54:14.358Z,10.20
2023-02-09T15:56:41.204Z,10.43
2023-02-09T15:59:16.069Z,10.97
2023-02-09T16:01:42.700Z,9.70
2023-02-09T16:04:14.184Z,10.53
2023-02-09T16:06:53.729Z,10.00
2023-02-09T16:09:28.653Z,11.40
2023-02-09T16:11:55.254Z,10.63
2023-02-09T16:14:24.307Z,10.73
2023-02-09T16:16:51.361Z,10.43
2023-02-09T16:19:17.986Z,10.50
2023-02-09T16:21:48.906Z,10.30
2023-02-09T16:24:30.154Z,10.40
2023-02-09T16:27:02.666Z,11.43
2023-02-09T16:29:29.128Z,12.00
2023-02-09T16:31:55.672Z,10.50
2023-02-09T16:34:22.110Z,10.97
2023-02-09T16:36:49.053Z,11.37
2023-02-09T16:39:20.771Z,10.93
2023-02-09T16:41:48.123Z,11.30
2023-02-09T16:44:19.599Z,11.27
2023-02-09T16:46:48.620Z,10.60
2023-02-09T16:49:31.376Z,11.37
2023-02-09T16:52:02.619Z,9.83
2023-02-09T16:54:33.303Z,11.53
2023-02-09T16:57:00.851Z,11.53
2023-02-09T16:59:27.294Z,13.03
2023-02-09T17:01:53.757Z,12.87
2023-02-09T17:04:20.238Z,13.57
2023-02-09T17:06:52.645Z,12.70
2023-02-09T17:09:19.096Z,14.30
2023-02-09T17:11:45.695Z,12.20
2023-02-09T17:14:12.661Z,12.30
2023-02-09T17:16:43.464Z,11.03
2023-02-09T17:19:15.129Z,11.40
2023-02-09T17:21:42.337Z,11.70
2023-02-09T17:24:17.178Z,12.27
2023-02-09T17:26:44.479Z,11.60
2023-02-09T17:29:11.373Z,11.27
2023-02-09T17:31:52.376Z,10.93
2023-02-09T17:34:20.523Z,11.20
2023-02-09T17:36:47.034Z,11.23
2023-02-09T17:39:14.180Z,11.47
2023-02-09T17:41:45.429Z,11.70
2023-02-09T17:44:29.081Z,11.33
2023-02-09T17:47:05.202Z,11.03
2023-02-09T17:49:32.100Z,10.67
2023-02-09T17:51:58.494Z,11.07
2023-02-09T17:54:25.201Z,11.40
2023-02-09T17:56:51.613Z,11.20
2023-02-09T17:59:20.089Z,11.13
2023-02-09T18:01:50.022Z,11.73
2023-02-09T18:04:23.192Z,10.43
2023-02-09T18:06:49.694Z,12.43
2023-02-09T18:09:16.253Z,11.50
2023-02-09T18:11:52.154Z,10.97
2023-02-09T18:14:20.417Z,11.30
2023-02-09T18:16:47.727Z,11.27
2023-02-09T18:19:15.733Z,11.37
2023-02-09T18:21:57.359Z,11.20
2023-02-09T18:24:25.892Z,11.27
2023-02-09T18:26:52.355Z,10.97
2023-02-09T18:29:22.795Z,11.77
2023-02-09T18:31:50.025Z,11.33
2023-02-09T18:34:16.859Z,11.00
2023-02-09T18:36:43.924Z,12.10
2023-02-09T18:39:10.647Z,11.73
2023-02-09T18:41:37.315Z,11.13
2023-02-09T18:44:03.747Z,11.13
2023-02-09T18:46:30.328Z,12.23
2023-02-09T18:48:56.940Z,11.80
2023-02-09T18:51:23.480Z,12.37
2023-02-09T18:53:51.122Z,11.97
2023-02-09T18:56:19.785Z,12.23
2023-02-09T18:58:47.850Z,12.03
2023-02-09T19:01:14.334Z,12.40
2023-02-09T19:03:41.471Z,11.53
2023-02-09T19:06:12.408Z,12.77
2023-02-09T19:08:39.711Z,11.77
2023-02-09T19:11:07.180Z,11.33
2023-02-09T19:13:34.067Z,11.90
2023-02-09T19:16:00.795Z,11.47
2023-02-09T19:18:27.697Z,12.47
2023-02-09T19:20:55.629Z,12.53
2023-02-09T19:23:24.075Z,11.80
2023-02-09T19:26:00.983Z,11.83
2023-02-09T19:28:27.497Z,12.30
2023-02-09T19:30:54.016Z,12.33
2023-02-09T19:33:23.048Z,12.57
2023-02-09T19:35:59.806Z,13.03
2023-02-09T19:38:26.847Z,12.40
2023-02-09T19:41:08.527Z,13.47
2023-02-09T19:43:36.650Z,13.13
2023-02-09T19:46:04.435Z,13.27
2023-02-09T19:48:31.463Z,12.30
2023-02-09T19:50:59.243Z,13.10
2023-02-09T19:53:26.729Z,13.83
2023-02-09T19:55:53.972Z,13.23
2023-02-09T19:58:23.714Z,13.87
2023-02-09T20:00:51.898Z,14.87
2023-02-09T20:03:18.644Z,13.07
2023-02-09T20:05:45.836Z,13.97
2023-02-09T20:08:16.355Z,14.00
2023-02-09T20:10:44.306Z,13.70
2023-02-09T20:13:12.957Z,14.80
2023-02-09T20:15:43.913Z,14.90
2023-02-09T20:18:13.525Z,14.43
2023-02-09T20:20:43.112Z,14.43
2023-02-09T20:23:10.108Z,15.53
2023-02-09T20:25:39.660Z,15.17
2023-02-09T20:28:06.316Z,14.67
2023-02-09T20:30:32.880Z,15.07
2023-02-09T20:32:59.325Z,14.87
2023-02-09T20:35:26.988Z,15.43
2023-02-09T20:37:53.756Z,15.53
2023-02-09T20:40:20.257Z,16.27
2023-02-09T20:43:05.371Z,15.07
2023-02-09T20:45:50.336Z,15.60
2023-02-09T20:48:17.388Z,15.90
2023-02-09T20:50:45.462Z,15.97
2023-02-09T20:53:12.732Z,16.43
2023-02-09T20:55:39.754Z,16.27
2023-02-09T20:58:06.626Z,16.33
2023-02-09T21:00:35.159Z,16.00
2023-02-09T21:03:01.980Z,16.27
2023-02-09T21:05:28.408Z,17.10
2023-02-09T21:07:55.900Z,16.40
2023-02-09T21:10:22.481Z,17.53
2023-02-09T21:12:48.922Z,17.13
2023-02-09T21:15:15.743Z,16.70
2023-02-09T21:17:47.650Z,17.20
2023-02-09T21:20:16.186Z,18.03
2023-02-09T21:22:42.728Z,16.90
2023-02-09T21:25:10.045Z,17.13
2023-02-09T21:27:37.131Z,18.37
2023-02-09T21:30:04.951Z,17.33
2023-02-09T21:32:34.764Z,18.30
2023-02-09T21:35:02.058Z,18.17
2023-02-09T21:37:32.213Z,18.50
2023-02-09T21:40:02.769Z,17.73
2023-02-09T21:42:30.627Z,18.30
2023-02-09T21:44:57.943Z,17.93
2023-02-09T21:47:27.882Z,18.00
2023-02-09T21:49:54.386Z,18.37
2023-02-09T21:52:21.033Z,17.90
2023-02-09T21:54:47.575Z,18.97
2023-02-09T21:57:14.271Z,18.70
2023-02-09T21:59:40.762Z,19.47
2023-02-09T22:02:07.956Z,19.03
2023-02-09T22:04:34.495Z,19.47
2023-02-09T22:07:00.909Z,18.77
2023-02-09T22:09:27.980Z,19.20
2023-02-09T22:11:54.478Z,20.47
2023-02-09T22:14:20.894Z,22.00
2023-02-09T22:16:47.330Z,19.57
2023-02-09T22:19:14.133Z,21.10
2023-02-09T22:21:40.600Z,20.83
2023-02-09T22:24:07.373Z,21.00
2023-02-09T22:26:33.837Z,21.53
2023-02-09T22:29:00.368Z,20.90
2023-02-09T22:31:26.811Z,21.70
2023-02-09T22:33:54.033Z,20.63
2023-02-09T22:36:21.761Z,21.83
2023-02-09T22:38:48.183Z,21.23
2023-02-09T22:41:23.464Z,22.63
2023-02-09T22:44:02.722Z,21.87
2023-02-09T22:46:32.824Z,22.53
2023-02-09T22:49:02.700Z,22.47
2023-02-09T22:51:31.082Z,23.00
2023-02-09T22:53:59.171Z,22.23
2023-02-09T22:56:27.347Z,23.30
2023-02-09T22:58:54.826Z,22.93
2023-02-09T23:01:21.616Z,23.33
2023-02-09T23:03:48.769Z,23.93
2023-02-09T23:06:18.091Z,23.87
2023-02-09T23:08:45.428Z,22.97
2023-02-09T23:11:15.093Z,24.87
2023-02-09T23:13:42.456Z,23.60
2023-02-09T23:16:22.558Z,25.43
2023-02-09T23:18:52.673Z,24.93
2023-02-09T23:21:21.703Z,26.17
2023-02-09T23:23:48.332Z,25.60
2023-02-09T23:26:16.416Z,25.40
2023-02-09T23:28:43.103Z,25.83
2023-02-09T23:31:17.304Z,26.73
2023-02-09T23:33:44.822Z,26.97
2023-02-09T23:36:22.834Z,26.80
2023-02-09T23:38:56.855Z,26.37
2023-02-09T23:41:24.161Z,25.00
2023-02-09T23:43:51.653Z,26.00
2023-02-09T23:46:20.951Z,28.03
2023-02-09T23:48:47.957Z,27.60
2023-02-09T23:51:20.892Z,26.30
2023-02-09T23:53:48.047Z,27.93
2023-02-09T23:56:16.082Z,26.73
2023-02-09T23:58:44.699Z,27.90
